Strona główna
METAR-TAF:

METAR-TAF

Lotnisko :

Port lotniczy Foz do Iguaçu

Foz do Iguaçu, Parana, Brazylia

Szerokość geograficzna: 25-31S, Długość geograficzna: 054-35W, wysokość: 180 m

Aktualna obserwacja pogody

Raport powstał 45 minut temu, godzina 16:00 UTC
Wiatr 4 kt od północ
Temperatura 26°C
Wilgotność 45%
Ciśnienie 1013 hPa
Widzialność 10 km lub więcej
Brak chmur poniżej 1500 m i brak chmur cumulonimbus

METAR: SBFI 061600Z 36004KT CAVOK 26/13 Q1013

czas: 13:45 (16:45 UTC)

Prognoza

Raport powstał 10 godziny i 15 minut temu, godzina 06:30 UTC
Prognoza ważna od 06 godzina 12 UTC do 07 godzina 12 UTC
Wiatr 5 kt od południe
Widzialność 10 km lub więcej
Brak chmur poniżej 1500 m i brak chmur cumulonimbus
Prawdopodobieństwo 40%
od 07 godzina 08 UTC do 07 godzina 11 UTC
Wiatr kt od północ
Widzialność: 0400 m
mgła

TAF: SBFI 060630Z 0612/0712 19005KT CAVOK TX28/0618Z TN14/0708Z PROB40 0708/0711 00000KT 0400 FG NSC RMK PEL

Obserwacja i prognoza pogody dla ponad 4000 lotnisk (raport METAR i TAF).

Dostępne stacje oznaczono żółtymi i czerwonymi punktami na mapie.

Najedź kursorem aby zobaczyć nazwę stacji.

Kliknij aby zobaczyć obserwacje i prognozy pogody.

Aby zmienić mapę: kliknij na zielony przycisk z czarnym krzyżykiem, aby powiększyć; na zielony przycisk z myślnikiem, aby pomniejszyć; na zielone strzałki, aby przejść do map sąsiednich.


METAR-TAF: